sensor_id;sensor_type;location;lat;lon;timestamp;P1;durP1;ratioP1;P2;durP2;ratioP2
64842;SDS011;51310;52.198;5.422;2024-02-21T00:01:03;11.98;;;3.75;;
64842;SDS011;51310;52.198;5.422;2024-02-21T00:03:30;15.45;;;4.80;;
64842;SDS011;51310;52.198;5.422;2024-02-21T00:05:56;10.15;;;3.60;;
64842;SDS011;51310;52.198;5.422;2024-02-21T00:08:22;10.05;;;2.88;;
64842;SDS011;51310;52.198;5.422;2024-02-21T00:10:48;16.85;;;3.80;;
64842;SDS011;51310;52.198;5.422;2024-02-21T00:13:14;11.32;;;4.28;;
64842;SDS011;51310;52.198;5.422;2024-02-21T00:15:40;14.52;;;3.42;;
64842;SDS011;51310;52.198;5.422;2024-02-21T00:18:06;20.13;;;4.20;;
64842;SDS011;51310;52.198;5.422;2024-02-21T00:20:32;9.10;;;3.15;;
64842;SDS011;51310;52.198;5.422;2024-02-21T00:22:57;12.23;;;4.25;;
64842;SDS011;51310;52.198;5.422;2024-02-21T00:25:23;14.27;;;2.95;;
64842;SDS011;51310;52.198;5.422;2024-02-21T00:27:49;13.68;;;3.28;;
64842;SDS011;51310;52.198;5.422;2024-02-21T00:30:15;24.00;;;4.00;;
64842;SDS011;51310;52.198;5.422;2024-02-21T00:32:41;21.10;;;4.53;;
64842;SDS011;51310;52.198;5.422;2024-02-21T00:35:07;13.40;;;3.20;;
64842;SDS011;51310;52.198;5.422;2024-02-21T00:37:33;11.25;;;3.83;;
64842;SDS011;51310;52.198;5.422;2024-02-21T00:39:59;22.88;;;3.35;;
64842;SDS011;51310;52.198;5.422;2024-02-21T00:42:25;14.40;;;4.57;;
64842;SDS011;51310;52.198;5.422;2024-02-21T00:44:51;13.77;;;4.35;;
64842;SDS011;51310;52.198;5.422;2024-02-21T00:47:16;12.90;;;3.33;;
64842;SDS011;51310;52.198;5.422;2024-02-21T00:49:42;16.95;;;4.07;;
64842;SDS011;51310;52.198;5.422;2024-02-21T00:52:08;20.50;;;4.10;;
64842;SDS011;51310;52.198;5.422;2024-02-21T00:54:34;13.45;;;3.20;;
64842;SDS011;51310;52.198;5.422;2024-02-21T00:57:00;28.02;;;3.72;;
64842;SDS011;51310;52.198;5.422;2024-02-21T00:59:26;20.25;;;3.53;;
64842;SDS011;51310;52.198;5.422;2024-02-21T01:01:52;10.85;;;3.15;;
64842;SDS011;51310;52.198;5.422;2024-02-21T01:04:17;17.17;;;4.00;;
64842;SDS011;51310;52.198;5.422;2024-02-21T01:06:43;17.85;;;3.67;;
64842;SDS011;51310;52.198;5.422;2024-02-21T01:09:10;8.73;;;3.58;;
64842;SDS011;51310;52.198;5.422;2024-02-21T01:11:36;18.05;;;4.22;;
64842;SDS011;51310;52.198;5.422;2024-02-21T01:14:02;10.82;;;3.45;;
64842;SDS011;51310;52.198;5.422;2024-02-21T01:16:28;11.38;;;3.47;;
64842;SDS011;51310;52.198;5.422;2024-02-21T01:18:54;19.42;;;5.20;;
64842;SDS011;51310;52.198;5.422;2024-02-21T01:21:20;11.90;;;3.72;;
64842;SDS011;51310;52.198;5.422;2024-02-21T01:23:46;14.85;;;4.13;;
64842;SDS011;51310;52.198;5.422;2024-02-21T01:26:12;14.63;;;4.05;;
64842;SDS011;51310;52.198;5.422;2024-02-21T01:28:40;14.80;;;3.72;;
64842;SDS011;51310;52.198;5.422;2024-02-21T01:31:06;11.10;;;4.82;;
64842;SDS011;51310;52.198;5.422;2024-02-21T01:33:33;16.95;;;4.97;;
64842;SDS011;51310;52.198;5.422;2024-02-21T01:36:03;15.13;;;4.68;;
64842;SDS011;51310;52.198;5.422;2024-02-21T01:38:33;11.35;;;4.38;;
64842;SDS011;51310;52.198;5.422;2024-02-21T01:41:00;13.80;;;4.60;;
64842;SDS011;51310;52.198;5.422;2024-02-21T01:43:26;16.15;;;4.22;;
64842;SDS011;51310;52.198;5.422;2024-02-21T01:45:52;15.90;;;4.80;;
64842;SDS011;51310;52.198;5.422;2024-02-21T01:48:22;26.73;;;4.85;;
64842;SDS011;51310;52.198;5.422;2024-02-21T01:50:49;19.38;;;5.07;;
64842;SDS011;51310;52.198;5.422;2024-02-21T01:53:16;26.90;;;5.70;;
64842;SDS011;51310;52.198;5.422;2024-02-21T01:55:48;16.13;;;5.05;;
64842;SDS011;51310;52.198;5.422;2024-02-21T01:58:14;17.83;;;5.53;;
64842;SDS011;51310;52.198;5.422;2024-02-21T02:00:41;18.50;;;4.95;;
64842;SDS011;51310;52.198;5.422;2024-02-21T02:03:10;11.50;;;4.65;;
64842;SDS011;51310;52.198;5.422;2024-02-21T02:05:43;18.90;;;5.07;;
64842;SDS011;51310;52.198;5.422;2024-02-21T02:08:15;13.88;;;5.25;;
64842;SDS011;51310;52.198;5.422;2024-02-21T02:10:44;19.38;;;4.88;;
64842;SDS011;51310;52.198;5.422;2024-02-21T02:13:11;11.77;;;5.53;;
64842;SDS011;51310;52.198;5.422;2024-02-21T02:15:47;18.48;;;5.00;;
64842;SDS011;51310;52.198;5.422;2024-02-21T02:18:15;25.15;;;5.35;;
64842;SDS011;51310;52.198;5.422;2024-02-21T02:20:43;16.30;;;4.43;;
64842;SDS011;51310;52.198;5.422;2024-02-21T02:25:57;19.70;;;3.95;;
64842;SDS011;51310;52.198;5.422;2024-02-21T02:28:23;9.93;;;4.82;;
64842;SDS011;51310;52.198;5.422;2024-02-21T02:30:49;13.63;;;4.30;;
64842;SDS011;51310;52.198;5.422;2024-02-21T02:33:15;24.90;;;6.15;;
64842;SDS011;51310;52.198;5.422;2024-02-21T02:35:44;14.63;;;3.97;;
64842;SDS011;51310;52.198;5.422;2024-02-21T02:38:11;23.98;;;5.38;;
64842;SDS011;51310;52.198;5.422;2024-02-21T02:40:38;11.80;;;4.47;;
64842;SDS011;51310;52.198;5.422;2024-02-21T02:43:05;10.45;;;4.03;;
64842;SDS011;51310;52.198;5.422;2024-02-21T02:45:32;17.23;;;4.75;;
64842;SDS011;51310;52.198;5.422;2024-02-21T02:47:58;13.10;;;5.20;;
64842;SDS011;51310;52.198;5.422;2024-02-21T02:50:25;20.00;;;4.38;;
64842;SDS011;51310;52.198;5.422;2024-02-21T02:52:53;23.70;;;4.82;;
64842;SDS011;51310;52.198;5.422;2024-02-21T02:55:20;10.30;;;4.57;;
64842;SDS011;51310;52.198;5.422;2024-02-21T02:57:46;17.27;;;4.60;;
64842;SDS011;51310;52.198;5.422;2024-02-21T03:00:12;16.40;;;5.43;;
64842;SDS011;51310;52.198;5.422;2024-02-21T03:02:40;11.00;;;4.40;;
64842;SDS011;51310;52.198;5.422;2024-02-21T03:05:14;13.23;;;5.45;;
64842;SDS011;51310;52.198;5.422;2024-02-21T03:07:45;11.98;;;4.72;;
64842;SDS011;51310;52.198;5.422;2024-02-21T03:10:12;17.42;;;5.35;;
64842;SDS011;51310;52.198;5.422;2024-02-21T03:12:41;14.95;;;5.20;;
64842;SDS011;51310;52.198;5.422;2024-02-21T03:15:07;16.48;;;5.22;;
64842;SDS011;51310;52.198;5.422;2024-02-21T03:17:34;23.48;;;5.18;;
64842;SDS011;51310;52.198;5.422;2024-02-21T03:20:01;12.23;;;5.55;;
64842;SDS011;51310;52.198;5.422;2024-02-21T03:22:34;18.35;;;5.63;;
64842;SDS011;51310;52.198;5.422;2024-02-21T03:25:00;14.32;;;5.28;;
64842;SDS011;51310;52.198;5.422;2024-02-21T03:27:26;23.77;;;5.72;;
64842;SDS011;51310;52.198;5.422;2024-02-21T03:29:52;12.70;;;5.35;;
64842;SDS011;51310;52.198;5.422;2024-02-21T03:32:18;14.82;;;6.07;;
64842;SDS011;51310;52.198;5.422;2024-02-21T03:34:43;26.00;;;6.32;;
64842;SDS011;51310;52.198;5.422;2024-02-21T03:37:09;21.52;;;5.53;;
64842;SDS011;51310;52.198;5.422;2024-02-21T03:39:35;27.45;;;5.45;;
64842;SDS011;51310;52.198;5.422;2024-02-21T03:42:02;19.77;;;6.32;;
64842;SDS011;51310;52.198;5.422;2024-02-21T03:44:33;18.10;;;6.32;;
64842;SDS011;51310;52.198;5.422;2024-02-21T03:46:59;13.32;;;5.45;;
64842;SDS011;51310;52.198;5.422;2024-02-21T03:49:25;20.23;;;6.18;;
64842;SDS011;51310;52.198;5.422;2024-02-21T03:51:52;19.33;;;5.93;;
64842;SDS011;51310;52.198;5.422;2024-02-21T03:54:18;26.08;;;8.05;;
64842;SDS011;51310;52.198;5.422;2024-02-21T03:56:45;25.33;;;6.70;;
64842;SDS011;51310;52.198;5.422;2024-02-21T03:59:12;25.45;;;6.60;;
64842;SDS011;51310;52.198;5.422;2024-02-21T04:01:38;20.52;;;6.50;;
64842;SDS011;51310;52.198;5.422;2024-02-21T04:04:04;25.80;;;6.68;;
64842;SDS011;51310;52.198;5.422;2024-02-21T04:06:30;12.90;;;5.93;;
64842;SDS011;51310;52.198;5.422;2024-02-21T04:08:56;14.52;;;6.53;;
64842;SDS011;51310;52.198;5.422;2024-02-21T04:11:22;20.90;;;6.50;;
64842;SDS011;51310;52.198;5.422;2024-02-21T04:13:48;18.42;;;5.93;;
64842;SDS011;51310;52.198;5.422;2024-02-21T04:16:15;21.20;;;5.65;;
64842;SDS011;51310;52.198;5.422;2024-02-21T04:18:42;20.90;;;6.45;;
64842;SDS011;51310;52.198;5.422;2024-02-21T04:21:08;21.38;;;6.88;;
64842;SDS011;51310;52.198;5.422;2024-02-21T04:23:35;25.95;;;7.00;;
64842;SDS011;51310;52.198;5.422;2024-02-21T04:26:01;31.85;;;7.03;;
64842;SDS011;51310;52.198;5.422;2024-02-21T04:28:27;23.42;;;6.72;;
64842;SDS011;51310;52.198;5.422;2024-02-21T04:30:53;28.63;;;6.95;;
64842;SDS011;51310;52.198;5.422;2024-02-21T04:33:19;17.90;;;6.25;;
64842;SDS011;51310;52.198;5.422;2024-02-21T04:35:44;13.80;;;6.47;;
64842;SDS011;51310;52.198;5.422;2024-02-21T04:38:10;21.27;;;6.47;;
64842;SDS011;51310;52.198;5.422;2024-02-21T04:40:36;19.30;;;5.97;;
64842;SDS011;51310;52.198;5.422;2024-02-21T04:43:02;18.55;;;5.68;;
64842;SDS011;51310;52.198;5.422;2024-02-21T04:45:28;15.05;;;5.85;;
64842;SDS011;51310;52.198;5.422;2024-02-21T04:47:54;18.05;;;5.28;;
64842;SDS011;51310;52.198;5.422;2024-02-21T04:50:20;13.90;;;5.82;;
64842;SDS011;51310;52.198;5.422;2024-02-21T04:52:46;20.67;;;6.53;;
64842;SDS011;51310;52.198;5.422;2024-02-21T04:55:12;15.95;;;6.35;;
64842;SDS011;51310;52.198;5.422;2024-02-21T04:57:38;28.73;;;6.97;;
64842;SDS011;51310;52.198;5.422;2024-02-21T05:00:04;15.55;;;6.22;;
64842;SDS011;51310;52.198;5.422;2024-02-21T05:02:32;11.45;;;5.95;;
64842;SDS011;51310;52.198;5.422;2024-02-21T05:04:58;24.75;;;6.50;;
64842;SDS011;51310;52.198;5.422;2024-02-21T05:07:24;13.75;;;5.70;;
64842;SDS011;51310;52.198;5.422;2024-02-21T05:09:50;16.98;;;7.30;;
64842;SDS011;51310;52.198;5.422;2024-02-21T05:12:16;15.80;;;6.32;;
64842;SDS011;51310;52.198;5.422;2024-02-21T05:14:42;13.40;;;5.05;;
64842;SDS011;51310;52.198;5.422;2024-02-21T05:17:08;15.82;;;6.10;;
64842;SDS011;51310;52.198;5.422;2024-02-21T05:19:34;12.85;;;7.15;;
64842;SDS011;51310;52.198;5.422;2024-02-21T05:22:00;19.08;;;6.57;;
64842;SDS011;51310;52.198;5.422;2024-02-21T05:24:25;14.98;;;6.00;;
64842;SDS011;51310;52.198;5.422;2024-02-21T05:26:51;17.20;;;6.70;;
64842;SDS011;51310;52.198;5.422;2024-02-21T05:29:19;14.05;;;6.47;;
64842;SDS011;51310;52.198;5.422;2024-02-21T05:34:17;12.30;;;6.75;;
64842;SDS011;51310;52.198;5.422;2024-02-21T05:36:44;14.85;;;7.15;;
64842;SDS011;51310;52.198;5.422;2024-02-21T05:39:10;11.85;;;6.95;;
64842;SDS011;51310;52.198;5.422;2024-02-21T05:41:40;10.93;;;6.32;;
64842;SDS011;51310;52.198;5.422;2024-02-21T05:44:05;21.92;;;8.02;;
64842;SDS011;51310;52.198;5.422;2024-02-21T05:46:31;16.67;;;7.65;;
64842;SDS011;51310;52.198;5.422;2024-02-21T05:48:57;17.13;;;6.78;;
64842;SDS011;51310;52.198;5.422;2024-02-21T05:51:23;16.20;;;7.22;;
64842;SDS011;51310;52.198;5.422;2024-02-21T05:53:49;17.08;;;6.72;;
64842;SDS011;51310;52.198;5.422;2024-02-21T05:56:15;15.70;;;7.05;;
64842;SDS011;51310;52.198;5.422;2024-02-21T05:58:43;14.93;;;8.15;;
64842;SDS011;51310;52.198;5.422;2024-02-21T06:01:09;16.08;;;7.18;;
64842;SDS011;51310;52.198;5.422;2024-02-21T06:03:35;11.27;;;6.97;;
64842;SDS011;51310;52.198;5.422;2024-02-21T06:06:01;18.95;;;7.55;;
64842;SDS011;51310;52.198;5.422;2024-02-21T06:08:29;19.25;;;7.07;;
64842;SDS011;51310;52.198;5.422;2024-02-21T06:10:56;14.68;;;6.32;;
64842;SDS011;51310;52.198;5.422;2024-02-21T06:13:23;16.75;;;7.75;;
64842;SDS011;51310;52.198;5.422;2024-02-21T06:15:49;20.35;;;7.80;;
64842;SDS011;51310;52.198;5.422;2024-02-21T06:18:17;19.13;;;6.63;;
64842;SDS011;51310;52.198;5.422;2024-02-21T06:20:44;19.83;;;7.20;;
64842;SDS011;51310;52.198;5.422;2024-02-21T06:23:11;15.93;;;7.28;;
64842;SDS011;51310;52.198;5.422;2024-02-21T06:25:43;17.47;;;7.63;;
64842;SDS011;51310;52.198;5.422;2024-02-21T06:28:09;17.48;;;7.07;;
64842;SDS011;51310;52.198;5.422;2024-02-21T06:30:35;17.38;;;7.32;;
64842;SDS011;51310;52.198;5.422;2024-02-21T06:33:01;17.05;;;7.50;;
64842;SDS011;51310;52.198;5.422;2024-02-21T06:35:27;23.48;;;9.52;;
64842;SDS011;51310;52.198;5.422;2024-02-21T06:37:54;15.35;;;7.40;;
64842;SDS011;51310;52.198;5.422;2024-02-21T06:40:21;20.65;;;8.32;;
64842;SDS011;51310;52.198;5.422;2024-02-21T06:42:48;21.95;;;9.32;;
64842;SDS011;51310;52.198;5.422;2024-02-21T06:45:15;16.83;;;7.75;;
64842;SDS011;51310;52.198;5.422;2024-02-21T06:47:42;26.50;;;10.65;;
64842;SDS011;51310;52.198;5.422;2024-02-21T06:50:08;16.23;;;8.90;;
64842;SDS011;51310;52.198;5.422;2024-02-21T06:52:35;18.52;;;9.07;;
64842;SDS011;51310;52.198;5.422;2024-02-21T06:55:02;20.58;;;10.40;;
64842;SDS011;51310;52.198;5.422;2024-02-21T06:57:29;23.30;;;10.43;;
64842;SDS011;51310;52.198;5.422;2024-02-21T06:59:55;23.92;;;9.65;;
64842;SDS011;51310;52.198;5.422;2024-02-21T07:02:21;24.13;;;12.05;;
64842;SDS011;51310;52.198;5.422;2024-02-21T07:04:47;32.90;;;12.55;;
64842;SDS011;51310;52.198;5.422;2024-02-21T07:07:13;22.83;;;11.02;;
64842;SDS011;51310;52.198;5.422;2024-02-21T07:09:39;24.50;;;10.68;;
64842;SDS011;51310;52.198;5.422;2024-02-21T07:12:05;23.48;;;10.95;;
64842;SDS011;51310;52.198;5.422;2024-02-21T07:14:32;24.23;;;11.05;;
64842;SDS011;51310;52.198;5.422;2024-02-21T07:16:58;21.73;;;10.82;;
64842;SDS011;51310;52.198;5.422;2024-02-21T07:19:24;31.05;;;12.77;;
64842;SDS011;51310;52.198;5.422;2024-02-21T07:21:50;27.77;;;11.90;;
64842;SDS011;51310;52.198;5.422;2024-02-21T07:24:16;28.13;;;13.43;;
64842;SDS011;51310;52.198;5.422;2024-02-21T07:26:42;35.25;;;13.75;;
64842;SDS011;51310;52.198;5.422;2024-02-21T07:29:09;36.20;;;12.90;;
64842;SDS011;51310;52.198;5.422;2024-02-21T07:31:41;24.58;;;13.32;;
64842;SDS011;51310;52.198;5.422;2024-02-21T07:34:08;33.50;;;13.40;;
64842;SDS011;51310;52.198;5.422;2024-02-21T07:36:35;27.05;;;12.93;;
64842;SDS011;51310;52.198;5.422;2024-02-21T07:39:03;35.63;;;13.05;;
64842;SDS011;51310;52.198;5.422;2024-02-21T07:41:29;25.55;;;13.15;;
64842;SDS011;51310;52.198;5.422;2024-02-21T07:43:56;30.17;;;14.30;;
64842;SDS011;51310;52.198;5.422;2024-02-21T07:46:22;25.75;;;13.15;;
64842;SDS011;51310;52.198;5.422;2024-02-21T07:48:48;24.55;;;12.02;;
64842;SDS011;51310;52.198;5.422;2024-02-21T07:51:15;26.27;;;12.85;;
64842;SDS011;51310;52.198;5.422;2024-02-21T07:53:43;31.90;;;13.52;;
64842;SDS011;51310;52.198;5.422;2024-02-21T07:56:13;27.42;;;13.57;;
64842;SDS011;51310;52.198;5.422;2024-02-21T07:58:40;23.35;;;12.77;;
64842;SDS011;51310;52.198;5.422;2024-02-21T08:01:07;25.13;;;11.82;;
64842;SDS011;51310;52.198;5.422;2024-02-21T08:03:33;22.40;;;11.18;;
64842;SDS011;51310;52.198;5.422;2024-02-21T08:06:00;33.28;;;14.65;;
64842;SDS011;51310;52.198;5.422;2024-02-21T08:08:26;19.88;;;10.40;;
64842;SDS011;51310;52.198;5.422;2024-02-21T08:10:52;25.85;;;11.32;;
64842;SDS011;51310;52.198;5.422;2024-02-21T08:13:18;21.58;;;9.20;;
64842;SDS011;51310;52.198;5.422;2024-02-21T08:15:44;27.45;;;10.43;;
64842;SDS011;51310;52.198;5.422;2024-02-21T08:18:10;20.90;;;9.13;;
64842;SDS011;51310;52.198;5.422;2024-02-21T08:20:36;24.40;;;9.45;;
64842;SDS011;51310;52.198;5.422;2024-02-21T08:23:02;27.17;;;10.82;;
64842;SDS011;51310;52.198;5.422;2024-02-21T08:25:28;20.80;;;8.68;;
64842;SDS011;51310;52.198;5.422;2024-02-21T08:27:56;22.23;;;9.85;;
64842;SDS011;51310;52.198;5.422;2024-02-21T08:30:24;30.35;;;10.23;;
64842;SDS011;51310;52.198;5.422;2024-02-21T08:32:50;19.55;;;9.00;;
64842;SDS011;51310;52.198;5.422;2024-02-21T08:35:16;18.67;;;8.77;;
64842;SDS011;51310;52.198;5.422;2024-02-21T08:37:48;22.70;;;8.10;;
64842;SDS011;51310;52.198;5.422;2024-02-21T08:40:15;21.38;;;8.52;;
64842;SDS011;51310;52.198;5.422;2024-02-21T08:42:46;18.65;;;7.93;;
64842;SDS011;51310;52.198;5.422;2024-02-21T08:45:12;22.10;;;9.77;;
64842;SDS011;51310;52.198;5.422;2024-02-21T08:47:41;21.38;;;7.97;;
64842;SDS011;51310;52.198;5.422;2024-02-21T08:50:08;24.77;;;9.15;;
64842;SDS011;51310;52.198;5.422;2024-02-21T08:52:37;22.92;;;9.60;;
64842;SDS011;51310;52.198;5.422;2024-02-21T08:55:03;14.60;;;8.85;;
64842;SDS011;51310;52.198;5.422;2024-02-21T08:57:29;18.17;;;9.95;;
64842;SDS011;51310;52.198;5.422;2024-02-21T09:00:01;21.55;;;9.48;;
64842;SDS011;51310;52.198;5.422;2024-02-21T09:02:41;19.77;;;9.23;;
64842;SDS011;51310;52.198;5.422;2024-02-21T09:05:10;25.70;;;9.98;;
64842;SDS011;51310;52.198;5.422;2024-02-21T09:07:36;19.88;;;10.18;;
64842;SDS011;51310;52.198;5.422;2024-02-21T09:10:02;25.08;;;11.13;;
64842;SDS011;51310;52.198;5.422;2024-02-21T09:12:29;20.80;;;8.73;;
64842;SDS011;51310;52.198;5.422;2024-02-21T09:14:55;29.95;;;10.10;;
64842;SDS011;51310;52.198;5.422;2024-02-21T09:17:21;17.10;;;9.60;;
64842;SDS011;51310;52.198;5.422;2024-02-21T09:19:47;24.40;;;10.02;;
64842;SDS011;51310;52.198;5.422;2024-02-21T09:22:13;14.27;;;8.80;;
64842;SDS011;51310;52.198;5.422;2024-02-21T09:24:39;23.02;;;9.60;;
64842;SDS011;51310;52.198;5.422;2024-02-21T09:27:05;15.50;;;7.68;;
64842;SDS011;51310;52.198;5.422;2024-02-21T09:29:31;17.70;;;8.00;;
64842;SDS011;51310;52.198;5.422;2024-02-21T09:32:01;20.63;;;10.10;;
64842;SDS011;51310;52.198;5.422;2024-02-21T09:34:27;18.85;;;7.63;;
64842;SDS011;51310;52.198;5.422;2024-02-21T09:36:54;14.70;;;7.13;;
64842;SDS011;51310;52.198;5.422;2024-02-21T09:39:20;15.35;;;7.30;;
64842;SDS011;51310;52.198;5.422;2024-02-21T09:41:53;19.52;;;7.90;;
64842;SDS011;51310;52.198;5.422;2024-02-21T09:44:36;17.90;;;6.78;;
64842;SDS011;51310;52.198;5.422;2024-02-21T09:47:12;12.18;;;6.85;;
64842;SDS011;51310;52.198;5.422;2024-02-21T09:50:09;15.85;;;7.00;;
64842;SDS011;51310;52.198;5.422;2024-02-21T09:52:35;19.60;;;7.45;;
64842;SDS011;51310;52.198;5.422;2024-02-21T09:55:02;14.75;;;7.30;;
64842;SDS011;51310;52.198;5.422;2024-02-21T09:57:30;14.48;;;6.88;;
64842;SDS011;51310;52.198;5.422;2024-02-21T09:59:57;16.33;;;5.95;;
64842;SDS011;51310;52.198;5.422;2024-02-21T10:02:24;17.08;;;6.60;;
64842;SDS011;51310;52.198;5.422;2024-02-21T10:04:50;12.68;;;6.25;;
64842;SDS011;51310;52.198;5.422;2024-02-21T10:07:15;14.88;;;5.80;;
64842;SDS011;51310;52.198;5.422;2024-02-21T10:09:44;20.02;;;6.68;;
64842;SDS011;51310;52.198;5.422;2024-02-21T10:12:12;10.15;;;5.68;;
64842;SDS011;51310;52.198;5.422;2024-02-21T10:14:38;13.13;;;6.40;;
64842;SDS011;51310;52.198;5.422;2024-02-21T10:17:04;16.17;;;5.05;;
64842;SDS011;51310;52.198;5.422;2024-02-21T10:19:34;10.23;;;5.57;;
64842;SDS011;51310;52.198;5.422;2024-02-21T10:22:04;12.88;;;6.00;;
64842;SDS011;51310;52.198;5.422;2024-02-21T10:24:33;10.60;;;5.63;;
64842;SDS011;51310;52.198;5.422;2024-02-21T10:27:07;12.00;;;5.35;;
64842;SDS011;51310;52.198;5.422;2024-02-21T10:29:38;17.35;;;5.55;;
64842;SDS011;51310;52.198;5.422;2024-02-21T10:32:06;10.85;;;5.57;;
64842;SDS011;51310;52.198;5.422;2024-02-21T10:34:39;15.23;;;6.00;;
64842;SDS011;51310;52.198;5.422;2024-02-21T10:37:08;11.32;;;5.18;;
64842;SDS011;51310;52.198;5.422;2024-02-21T10:39:39;24.00;;;6.38;;
64842;SDS011;51310;52.198;5.422;2024-02-21T10:42:07;10.40;;;5.07;;
64842;SDS011;51310;52.198;5.422;2024-02-21T10:44:37;14.02;;;6.10;;
64842;SDS011;51310;52.198;5.422;2024-02-21T10:47:07;10.95;;;5.00;;
64842;SDS011;51310;52.198;5.422;2024-02-21T10:49:38;14.38;;;4.53;;
64842;SDS011;51310;52.198;5.422;2024-02-21T10:55:20;10.60;;;4.65;;
64842;SDS011;51310;52.198;5.422;2024-02-21T10:57:58;11.88;;;4.18;;
64842;SDS011;51310;52.198;5.422;2024-02-21T11:00:25;7.22;;;3.75;;
64842;SDS011;51310;52.198;5.422;2024-02-21T11:02:55;7.30;;;4.28;;
64842;SDS011;51310;52.198;5.422;2024-02-21T11:05:24;8.68;;;4.53;;
64842;SDS011;51310;52.198;5.422;2024-02-21T11:07:53;6.28;;;3.97;;
64842;SDS011;51310;52.198;5.422;2024-02-21T11:10:23;6.70;;;3.90;;
64842;SDS011;51310;52.198;5.422;2024-02-21T11:13:08;5.13;;;3.40;;
64842;SDS011;51310;52.198;5.422;2024-02-21T11:15:36;6.70;;;3.80;;
64842;SDS011;51310;52.198;5.422;2024-02-21T11:18:02;7.30;;;3.92;;
64842;SDS011;51310;52.198;5.422;2024-02-21T11:20:35;9.88;;;4.65;;
64842;SDS011;51310;52.198;5.422;2024-02-21T11:23:02;8.68;;;4.45;;
64842;SDS011;51310;52.198;5.422;2024-02-21T11:25:29;7.57;;;4.53;;
64842;SDS011;51310;52.198;5.422;2024-02-21T11:28:07;10.10;;;4.65;;
64842;SDS011;51310;52.198;5.422;2024-02-21T11:30:36;11.02;;;4.28;;
64842;SDS011;51310;52.198;5.422;2024-02-21T11:33:03;10.23;;;5.15;;
64842;SDS011;51310;52.198;5.422;2024-02-21T11:35:35;7.25;;;5.15;;
64842;SDS011;51310;52.198;5.422;2024-02-21T11:38:11;6.97;;;4.80;;
64842;SDS011;51310;52.198;5.422;2024-02-21T11:40:43;7.45;;;4.80;;
64842;SDS011;51310;52.198;5.422;2024-02-21T11:43:11;9.95;;;4.97;;
64842;SDS011;51310;52.198;5.422;2024-02-21T11:45:37;8.02;;;4.65;;
64842;SDS011;51310;52.198;5.422;2024-02-21T11:48:05;10.18;;;5.13;;
64842;SDS011;51310;52.198;5.422;2024-02-21T11:50:33;9.60;;;5.40;;
64842;SDS011;51310;52.198;5.422;2024-02-21T11:53:04;9.98;;;5.95;;
64842;SDS011;51310;52.198;5.422;2024-02-21T11:55:31;14.40;;;4.90;;
64842;SDS011;51310;52.198;5.422;2024-02-21T11:57:57;11.45;;;5.15;;
64842;SDS011;51310;52.198;5.422;2024-02-21T12:00:23;6.95;;;5.10;;
64842;SDS011;51310;52.198;5.422;2024-02-21T12:02:51;8.07;;;4.20;;
64842;SDS011;51310;52.198;5.422;2024-02-21T12:05:18;9.90;;;5.55;;
64842;SDS011;51310;52.198;5.422;2024-02-21T12:07:45;8.38;;;5.38;;
64842;SDS011;51310;52.198;5.422;2024-02-21T12:10:11;12.55;;;5.72;;
64842;SDS011;51310;52.198;5.422;2024-02-21T12:12:38;10.77;;;5.18;;
64842;SDS011;51310;52.198;5.422;2024-02-21T12:15:06;12.80;;;5.75;;
64842;SDS011;51310;52.198;5.422;2024-02-21T12:17:34;11.20;;;6.13;;
64842;SDS011;51310;52.198;5.422;2024-02-21T12:20:05;12.45;;;5.38;;
64842;SDS011;51310;52.198;5.422;2024-02-21T12:22:35;11.60;;;6.65;;
64842;SDS011;51310;52.198;5.422;2024-02-21T12:25:04;9.60;;;5.70;;
64842;SDS011;51310;52.198;5.422;2024-02-21T12:27:47;10.52;;;5.65;;
64842;SDS011;51310;52.198;5.422;2024-02-21T12:30:14;10.90;;;5.38;;
64842;SDS011;51310;52.198;5.422;2024-02-21T12:32:41;8.70;;;4.95;;
64842;SDS011;51310;52.198;5.422;2024-02-21T12:35:07;11.68;;;5.22;;
64842;SDS011;51310;52.198;5.422;2024-02-21T12:37:33;9.85;;;4.63;;
64842;SDS011;51310;52.198;5.422;2024-02-21T12:40:00;11.25;;;5.00;;
64842;SDS011;51310;52.198;5.422;2024-02-21T12:42:26;13.43;;;4.97;;
64842;SDS011;51310;52.198;5.422;2024-02-21T12:44:53;9.23;;;4.45;;
64842;SDS011;51310;52.198;5.422;2024-02-21T12:47:19;7.00;;;4.25;;
64842;SDS011;51310;52.198;5.422;2024-02-21T12:49:48;14.88;;;4.63;;
64842;SDS011;51310;52.198;5.422;2024-02-21T12:52:14;10.10;;;4.20;;
64842;SDS011;51310;52.198;5.422;2024-02-21T12:54:41;7.97;;;3.90;;
64842;SDS011;51310;52.198;5.422;2024-02-21T12:57:07;12.32;;;4.28;;
64842;SDS011;51310;52.198;5.422;2024-02-21T12:59:33;18.17;;;5.43;;
64842;SDS011;51310;52.198;5.422;2024-02-21T13:01:59;9.98;;;4.88;;
64842;SDS011;51310;52.198;5.422;2024-02-21T13:04:25;13.98;;;4.53;;
64842;SDS011;51310;52.198;5.422;2024-02-21T13:06:51;11.38;;;4.70;;
64842;SDS011;51310;52.198;5.422;2024-02-21T13:09:17;19.80;;;5.75;;
64842;SDS011;51310;52.198;5.422;2024-02-21T13:11:43;7.60;;;4.78;;
64842;SDS011;51310;52.198;5.422;2024-02-21T13:14:11;13.05;;;4.20;;
64842;SDS011;51310;52.198;5.422;2024-02-21T13:16:37;11.07;;;4.43;;
64842;SDS011;51310;52.198;5.422;2024-02-21T13:19:09;9.77;;;4.32;;
64842;SDS011;51310;52.198;5.422;2024-02-21T13:21:35;6.65;;;3.70;;
64842;SDS011;51310;52.198;5.422;2024-02-21T13:24:01;10.40;;;3.80;;
64842;SDS011;51310;52.198;5.422;2024-02-21T13:26:28;6.53;;;3.78;;
64842;SDS011;51310;52.198;5.422;2024-02-21T13:28:54;13.07;;;3.38;;
64842;SDS011;51310;52.198;5.422;2024-02-21T13:31:20;6.35;;;3.90;;
64842;SDS011;51310;52.198;5.422;2024-02-21T13:33:46;12.70;;;3.22;;
64842;SDS011;51310;52.198;5.422;2024-02-21T13:36:12;11.00;;;4.15;;
64842;SDS011;51310;52.198;5.422;2024-02-21T13:38:38;7.63;;;4.07;;
64842;SDS011;51310;52.198;5.422;2024-02-21T13:41:05;8.23;;;3.25;;
64842;SDS011;51310;52.198;5.422;2024-02-21T13:43:31;6.25;;;3.30;;
64842;SDS011;51310;52.198;5.422;2024-02-21T13:45:58;9.05;;;3.38;;
64842;SDS011;51310;52.198;5.422;2024-02-21T13:48:34;5.15;;;3.53;;
64842;SDS011;51310;52.198;5.422;2024-02-21T13:51:01;5.40;;;2.88;;
64842;SDS011;51310;52.198;5.422;2024-02-21T13:53:29;7.57;;;3.42;;
64842;SDS011;51310;52.198;5.422;2024-02-21T13:55:55;6.25;;;3.25;;
64842;SDS011;51310;52.198;5.422;2024-02-21T13:58:21;11.07;;;3.70;;
64842;SDS011;51310;52.198;5.422;2024-02-21T14:00:48;5.65;;;2.95;;
64842;SDS011;51310;52.198;5.422;2024-02-21T14:03:14;6.80;;;3.05;;
64842;SDS011;51310;52.198;5.422;2024-02-21T14:05:40;8.25;;;3.10;;
64842;SDS011;51310;52.198;5.422;2024-02-21T14:08:06;6.13;;;3.60;;
64842;SDS011;51310;52.198;5.422;2024-02-21T14:10:32;14.05;;;4.07;;
64842;SDS011;51310;52.198;5.422;2024-02-21T14:12:58;6.15;;;3.53;;
64842;SDS011;51310;52.198;5.422;2024-02-21T14:15:25;7.18;;;3.67;;
64842;SDS011;51310;52.198;5.422;2024-02-21T14:17:51;9.13;;;3.22;;
64842;SDS011;51310;52.198;5.422;2024-02-21T14:20:17;6.85;;;3.35;;
64842;SDS011;51310;52.198;5.422;2024-02-21T14:22:43;14.80;;;3.55;;
64842;SDS011;51310;52.198;5.422;2024-02-21T14:25:08;12.77;;;4.47;;
64842;SDS011;51310;52.198;5.422;2024-02-21T14:27:34;5.13;;;3.13;;
64842;SDS011;51310;52.198;5.422;2024-02-21T14:30:03;11.35;;;3.00;;
64842;SDS011;51310;52.198;5.422;2024-02-21T14:32:30;10.88;;;3.50;;
64842;SDS011;51310;52.198;5.422;2024-02-21T14:34:56;11.63;;;3.58;;
64842;SDS011;51310;52.198;5.422;2024-02-21T14:37:22;10.63;;;3.10;;
64842;SDS011;51310;52.198;5.422;2024-02-21T14:39:48;10.95;;;3.42;;
64842;SDS011;51310;52.198;5.422;2024-02-21T14:42:14;9.68;;;3.00;;
64842;SDS011;51310;52.198;5.422;2024-02-21T14:44:39;6.18;;;3.00;;